createdAt,value
2022-09-23T00:01:39.613Z,7.94
2022-09-23T00:04:07.480Z,7.97
2022-09-23T00:06:35.321Z,7.97
2022-09-23T00:09:03.458Z,7.95
2022-09-23T00:11:33.071Z,7.94
2022-09-23T00:14:01.493Z,7.97
2022-09-23T00:16:34.253Z,7.98
2022-09-23T00:19:03.458Z,8.00
2022-09-23T00:21:31.367Z,7.97
2022-09-23T00:23:59.302Z,7.96
2022-09-23T00:26:27.984Z,7.93
2022-09-23T00:28:55.920Z,7.93
2022-09-23T00:31:26.392Z,7.95
2022-09-23T00:34:04.228Z,7.93
2022-09-23T00:36:32.565Z,7.96
2022-09-23T00:39:00.685Z,7.94
2022-09-23T00:41:28.639Z,7.91
2022-09-23T00:44:00.974Z,7.84
2022-09-23T00:46:36.245Z,7.82
2022-09-23T00:49:11.140Z,7.80
2022-09-23T00:51:45.653Z,7.79
2022-09-23T00:54:13.612Z,7.79
2022-09-23T00:56:41.686Z,7.76
2022-09-23T00:59:10.899Z,7.73
2022-09-23T01:01:39.956Z,7.71
2022-09-23T01:04:08.804Z,7.72
2022-09-23T01:06:36.731Z,7.75
2022-09-23T01:09:04.711Z,7.76
2022-09-23T01:11:54.256Z,7.85
2022-09-23T01:14:37.393Z,7.86
2022-09-23T01:17:24.424Z,7.83
2022-09-23T01:20:20.552Z,7.75
2022-09-23T01:23:11.546Z,7.68
2022-09-23T01:25:41.064Z,7.63
2022-09-23T01:28:19.023Z,7.54
2022-09-23T01:31:24.364Z,7.53
2022-09-23T01:34:04.948Z,7.53
2022-09-23T01:37:08.167Z,7.48
2022-09-23T01:39:39.295Z,7.45
2022-09-23T01:42:29.609Z,7.48
2022-09-23T01:45:15.004Z,7.47
2022-09-23T01:47:55.075Z,7.42
2022-09-23T01:50:51.794Z,7.37
2022-09-23T01:53:43.709Z,7.35
2022-09-23T01:56:32.791Z,7.34
2022-09-23T01:59:10.430Z,7.35
2022-09-23T02:01:51.351Z,7.37
2022-09-23T02:04:51.688Z,7.37
2022-09-23T02:07:30.190Z,7.40
2022-09-23T02:10:06.976Z,7.45
2022-09-23T02:12:38.411Z,7.49
2022-09-23T02:15:12.230Z,7.53
2022-09-23T02:17:49.857Z,7.55
2022-09-23T02:20:24.371Z,7.55
2022-09-23T02:22:56.834Z,7.56
2022-09-23T02:25:35.498Z,7.55
2022-09-23T02:28:11.845Z,7.57
2022-09-23T02:31:00.335Z,7.56
2022-09-23T02:33:36.698Z,7.56
2022-09-23T02:36:19.593Z,7.52
2022-09-23T02:38:59.266Z,7.49
2022-09-23T02:41:37.630Z,7.50
2022-09-23T02:44:12.875Z,7.49
2022-09-23T02:46:43.439Z,7.44
2022-09-23T02:49:24.824Z,7.41
2022-09-23T02:52:00.688Z,7.32
2022-09-23T02:54:29.597Z,7.24
2022-09-23T02:57:02.970Z,7.20
2022-09-23T02:59:31.451Z,7.19
2022-09-23T03:02:14.190Z,7.17
2022-09-23T03:04:50.491Z,7.13
2022-09-23T03:07:49.936Z,7.04
2022-09-23T03:10:26.398Z,7.00
2022-09-23T03:13:04.997Z,6.92
2022-09-23T03:16:00.013Z,6.88
2022-09-23T03:18:51.541Z,6.82
2022-09-23T03:21:54.298Z,6.75
2022-09-23T03:24:25.044Z,6.66
2022-09-23T03:26:55.294Z,6.56
2022-09-23T03:29:23.765Z,6.45
2022-09-23T03:31:53.446Z,6.36
2022-09-23T03:34:27.171Z,6.29
2022-09-23T03:37:01.246Z,6.29
2022-09-23T03:39:51.073Z,6.26
2022-09-23T03:42:23.677Z,6.19
2022-09-23T03:44:57.532Z,6.15
2022-09-23T03:47:27.770Z,6.12
2022-09-23T03:49:56.903Z,6.08
2022-09-23T03:52:26.355Z,6.06
2022-09-23T03:55:51.004Z,6.04
2022-09-23T03:58:38.295Z,6.05
2022-09-23T04:01:06.338Z,6.10
2022-09-23T04:03:34.311Z,6.16
2022-09-23T04:06:02.174Z,6.23
2022-09-23T04:08:30.094Z,6.27
2022-09-23T04:11:02.831Z,6.27
2022-09-23T04:13:32.024Z,6.30
2022-09-23T04:16:00.023Z,6.31
2022-09-23T04:18:28.039Z,6.27
2022-09-23T04:21:02.640Z,6.30
2022-09-23T04:23:30.874Z,6.32
2022-09-23T04:25:58.850Z,6.32
2022-09-23T04:28:26.985Z,6.30
2022-09-23T04:30:56.302Z,6.28
2022-09-23T04:33:25.483Z,6.27
2022-09-23T04:35:55.323Z,6.27
2022-09-23T04:38:23.617Z,6.30
2022-09-23T04:40:51.598Z,6.33
2022-09-23T04:43:23.525Z,6.37
2022-09-23T04:46:03.329Z,6.38
2022-09-23T04:48:31.950Z,6.35
2022-09-23T04:51:04.963Z,6.31
2022-09-23T04:53:33.614Z,6.31
2022-09-23T04:56:29.020Z,6.32
2022-09-23T04:58:58.428Z,6.33
2022-09-23T05:01:29.168Z,6.33
2022-09-23T05:04:02.592Z,6.32
2022-09-23T05:06:32.419Z,6.36
2022-09-23T05:09:00.855Z,6.35
2022-09-23T05:11:31.428Z,6.35
2022-09-23T05:14:00.021Z,6.40
2022-09-23T05:16:28.136Z,6.42
2022-09-23T05:18:56.360Z,6.41
2022-09-23T05:21:27.048Z,6.40
2022-09-23T05:23:59.175Z,6.39
2022-09-23T05:26:30.068Z,6.39
2022-09-23T05:28:58.731Z,6.46
2022-09-23T05:31:29.671Z,6.51
2022-09-23T05:34:00.852Z,6.59
2022-09-23T05:36:35.554Z,6.69
2022-09-23T05:39:07.077Z,6.77
2022-09-23T05:41:36.119Z,6.80
2022-09-23T05:44:04.368Z,6.87
2022-09-23T05:46:33.339Z,6.91
2022-09-23T05:49:03.285Z,6.94
2022-09-23T05:51:34.825Z,6.96
2022-09-23T05:54:08.859Z,7.02
2022-09-23T05:56:37.919Z,7.08
2022-09-23T05:59:06.965Z,7.10
2022-09-23T06:01:36.835Z,7.16
2022-09-23T06:04:08.337Z,7.26
2022-09-23T06:06:41.553Z,7.39
2022-09-23T06:09:16.282Z,7.40
2022-09-23T06:11:44.290Z,7.35
2022-09-23T06:14:14.955Z,7.34
2022-09-23T06:16:43.282Z,7.31
2022-09-23T06:19:11.436Z,7.25
2022-09-23T06:21:41.070Z,7.26
2022-09-23T06:24:09.811Z,7.26
2022-09-23T06:26:38.962Z,7.27
2022-09-23T06:29:11.966Z,7.20
2022-09-23T06:31:41.825Z,7.14
2022-09-23T06:34:13.478Z,7.14
2022-09-23T06:36:45.564Z,7.15
2022-09-23T06:39:15.643Z,7.16
2022-09-23T06:41:45.459Z,7.17
2022-09-23T06:44:14.887Z,7.16
2022-09-23T06:46:43.128Z,7.17
2022-09-23T06:49:12.290Z,7.19
2022-09-23T06:51:41.180Z,7.22
2022-09-23T06:54:09.596Z,7.20
2022-09-23T06:56:39.726Z,7.25
2022-09-23T06:59:13.258Z,7.28
2022-09-23T07:01:41.915Z,7.35
2022-09-23T07:04:10.886Z,7.41
2022-09-23T07:06:39.191Z,7.51
2022-09-23T07:09:08.695Z,7.65
2022-09-23T07:11:37.148Z,7.80
2022-09-23T07:14:05.685Z,7.97
2022-09-23T07:16:33.669Z,8.09
2022-09-23T07:19:01.614Z,8.16
2022-09-23T07:21:29.600Z,8.11
2022-09-23T07:23:58.382Z,8.12
2022-09-23T07:26:26.479Z,8.18
2022-09-23T07:28:57.032Z,8.27
2022-09-23T07:31:37.005Z,8.37
2022-09-23T07:34:07.883Z,8.47
2022-09-23T07:36:37.645Z,8.56
2022-09-23T07:39:05.633Z,8.67
2022-09-23T07:41:34.619Z,8.75
2022-09-23T07:44:03.297Z,8.79
2022-09-23T07:46:33.406Z,8.86
2022-09-23T07:49:05.539Z,8.86
2022-09-23T07:51:39.653Z,8.83
2022-09-23T07:54:13.250Z,8.84
2022-09-23T07:56:47.980Z,8.88
2022-09-23T07:59:18.469Z,8.96
2022-09-23T08:01:49.136Z,9.05
2022-09-23T08:04:24.303Z,9.08
2022-09-23T08:06:55.268Z,9.06
2022-09-23T08:09:27.155Z,9.16
2022-09-23T08:11:56.530Z,9.26
2022-09-23T08:14:24.946Z,9.31
2022-09-23T08:16:53.776Z,9.38
2022-09-23T08:19:21.690Z,9.41
2022-09-23T08:21:52.307Z,9.38
2022-09-23T08:24:24.359Z,9.31
2022-09-23T08:26:54.468Z,9.38
2022-09-23T08:29:25.032Z,9.59
2022-09-23T08:31:53.915Z,9.79
2022-09-23T08:34:24.418Z,9.95
2022-09-23T08:36:52.487Z,10.13
2022-09-23T08:39:21.066Z,10.25
2022-09-23T08:42:13.510Z,10.33
2022-09-23T08:44:53.656Z,10.62
2022-09-23T08:47:32.488Z,10.86
2022-09-23T08:50:11.768Z,10.97
2022-09-23T08:52:58.731Z,10.91
2022-09-23T08:55:42.554Z,10.78
2022-09-23T08:58:26.044Z,10.77
2022-09-23T09:01:10.769Z,10.90
2022-09-23T09:03:59.186Z,11.07
2022-09-23T09:06:53.543Z,11.17
2022-09-23T09:09:33.798Z,11.21
2022-09-23T09:12:24.189Z,11.08
2022-09-23T09:15:02.818Z,10.99
2022-09-23T09:17:38.512Z,11.14
2022-09-23T09:20:17.551Z,11.28
2022-09-23T09:23:00.750Z,11.39
2022-09-23T09:25:49.861Z,11.41
2022-09-23T09:28:27.025Z,11.41
2022-09-23T09:31:00.046Z,11.61
2022-09-23T09:34:03.095Z,11.81
2022-09-23T09:36:45.957Z,11.95
2022-09-23T09:39:15.317Z,11.84
2022-09-23T09:41:50.880Z,11.67
2022-09-23T09:44:27.051Z,11.67
2022-09-23T09:47:36.745Z,11.87
2022-09-23T09:50:11.063Z,12.16
2022-09-23T09:52:39.909Z,12.32
2022-09-23T09:55:13.715Z,12.39
2022-09-23T09:58:06.010Z,12.46
2022-09-23T10:00:43.259Z,12.59
2022-09-23T10:03:38.249Z,12.60
2022-09-23T10:06:17.451Z,12.46
2022-09-23T10:09:13.977Z,12.29
2022-09-23T10:11:42.258Z,12.04
2022-09-23T10:14:18.668Z,12.10
2022-09-23T10:17:05.595Z,12.25
2022-09-23T10:19:37.243Z,12.53
2022-09-23T10:22:17.122Z,12.78
2022-09-23T10:24:49.884Z,12.92
2022-09-23T10:27:27.227Z,13.05
2022-09-23T10:30:01.458Z,13.18
2022-09-23T10:32:40.169Z,13.12
2022-09-23T10:35:14.706Z,13.11
2022-09-23T10:37:49.727Z,13.17
2022-09-23T10:40:36.580Z,13.26
2022-09-23T10:43:35.852Z,13.27
2022-09-23T10:46:27.000Z,13.32
2022-09-23T10:49:13.505Z,13.47
2022-09-23T10:51:56.221Z,13.68
2022-09-23T10:54:32.973Z,13.79
2022-09-23T10:57:36.047Z,13.94
2022-09-23T11:00:22.471Z,14.01
2022-09-23T11:03:19.570Z,13.96
2022-09-23T11:06:20.101Z,13.89
2022-09-23T11:09:28.524Z,13.96
2022-09-23T11:12:21.435Z,13.93
2022-09-23T11:15:33.196Z,13.75
2022-09-23T11:18:35.339Z,13.51
2022-09-23T11:21:15.188Z,13.64
2022-09-23T11:24:05.123Z,13.77
2022-09-23T11:26:42.480Z,13.52
2022-09-23T11:29:33.102Z,13.34
2022-09-23T11:32:28.480Z,13.51
2022-09-23T11:35:24.539Z,13.81
2022-09-23T11:38:01.766Z,14.15
2022-09-23T11:40:42.361Z,14.45
2022-09-23T11:43:18.648Z,14.73
2022-09-23T11:46:02.834Z,15.02
2022-09-23T11:48:43.926Z,15.09
2022-09-23T11:51:21.989Z,14.96
2022-09-23T11:54:35.202Z,14.56
2022-09-23T11:57:07.318Z,14.01
2022-09-23T12:02:30.859Z,13.84
2022-09-23T12:05:08.479Z,14.17
2022-09-23T12:07:57.478Z,14.53
2022-09-23T12:10:57.826Z,14.54
2022-09-23T12:13:49.176Z,14.65
2022-09-23T12:16:49.246Z,14.85
2022-09-23T12:19:39.027Z,14.96
2022-09-23T12:22:42.784Z,15.05
2022-09-23T12:25:31.144Z,14.88
2022-09-23T12:28:11.766Z,14.62
2022-09-23T12:30:40.735Z,14.64
2022-09-23T12:33:26.570Z,15.05
2022-09-23T12:36:06.962Z,15.45
2022-09-23T12:38:38.817Z,15.91
2022-09-23T12:41:29.972Z,16.14
2022-09-23T12:44:15.734Z,16.60
2022-09-23T12:46:45.723Z,16.85
2022-09-23T12:49:37.294Z,16.89
2022-09-23T12:52:17.507Z,16.76
2022-09-23T12:54:47.253Z,16.84
2022-09-23T12:57:33.779Z,16.97
2022-09-23T13:00:12.781Z,17.00
2022-09-23T13:02:47.039Z,17.08
2022-09-23T13:05:44.718Z,17.12
2022-09-23T13:08:15.162Z,16.76
2022-09-23T13:10:49.546Z,16.30
2022-09-23T13:13:26.870Z,15.88
2022-09-23T13:15:55.129Z,15.84
2022-09-23T13:18:25.513Z,15.94
2022-09-23T13:20:55.127Z,16.12
2022-09-23T13:23:28.103Z,16.24
2022-09-23T13:25:59.624Z,16.54
2022-09-23T13:28:41.886Z,16.76
2022-09-23T13:31:16.064Z,16.94
2022-09-23T13:33:49.159Z,17.04
2022-09-23T13:36:18.920Z,16.92
2022-09-23T13:38:47.245Z,16.74
2022-09-23T13:41:17.311Z,16.68
2022-09-23T13:43:52.116Z,16.58
2022-09-23T13:46:25.286Z,16.46
2022-09-23T13:48:54.937Z,16.44
2022-09-23T13:51:34.166Z,16.44
2022-09-23T13:54:05.319Z,16.44
2022-09-23T13:56:36.666Z,16.46
2022-09-23T13:59:16.340Z,16.51
2022-09-23T14:01:47.184Z,16.49
2022-09-23T14:04:26.000Z,16.49
2022-09-23T14:06:54.715Z,16.72
2022-09-23T14:09:29.080Z,16.85
2022-09-23T14:12:00.259Z,17.06
2022-09-23T14:14:30.513Z,17.38
2022-09-23T14:16:59.456Z,17.54
2022-09-23T14:19:27.472Z,17.57
2022-09-23T14:21:56.646Z,17.65
2022-09-23T14:24:30.664Z,17.99
2022-09-23T14:27:16.362Z,17.91
2022-09-23T14:29:49.540Z,17.40
2022-09-23T14:32:21.250Z,16.91
2022-09-23T14:34:50.428Z,16.53
2022-09-23T14:37:37.145Z,16.42
2022-09-23T14:40:17.543Z,16.27
2022-09-23T14:43:03.852Z,16.17
2022-09-23T14:45:40.559Z,16.36
2022-09-23T14:48:23.181Z,16.84
2022-09-23T14:51:02.622Z,17.34
2022-09-23T14:53:40.922Z,17.89
2022-09-23T14:56:08.796Z,18.45
2022-09-23T14:58:55.603Z,18.65
2022-09-23T15:01:35.908Z,18.70
2022-09-23T15:04:28.141Z,18.18
2022-09-23T15:06:59.797Z,17.56
2022-09-23T15:09:31.099Z,17.24
2022-09-23T15:12:15.166Z,16.86
2022-09-23T15:14:46.683Z,16.29
2022-09-23T15:17:35.266Z,15.97
2022-09-23T15:20:08.504Z,15.51
2022-09-23T15:22:48.786Z,15.17
2022-09-23T15:25:22.571Z,15.19
2022-09-23T15:28:08.777Z,15.46
2022-09-23T15:30:38.389Z,15.65
2022-09-23T15:33:07.098Z,15.81
2022-09-23T15:35:36.322Z,15.91
2022-09-23T15:38:04.331Z,15.96
2022-09-23T15:40:35.531Z,16.00
2022-09-23T15:43:21.174Z,16.01
2022-09-23T15:45:53.379Z,16.10
2022-09-23T15:48:28.969Z,16.28
2022-09-23T15:50:59.307Z,16.67
2022-09-23T15:53:28.312Z,17.05
2022-09-23T15:55:58.732Z,17.23
2022-09-23T15:58:27.800Z,17.45
2022-09-23T16:00:57.258Z,17.72
2022-09-23T16:03:28.782Z,17.92
2022-09-23T16:06:01.347Z,17.89
2022-09-23T16:08:32.481Z,17.88
2022-09-23T16:11:00.548Z,17.88
2022-09-23T16:13:28.631Z,17.75
2022-09-23T16:15:56.644Z,17.60
2022-09-23T16:18:24.676Z,17.21
2022-09-23T16:20:52.677Z,16.83
2022-09-23T16:23:35.818Z,16.30
2022-09-23T16:26:06.589Z,15.52
2022-09-23T16:28:34.920Z,14.86
2022-09-23T16:31:03.238Z,14.21
2022-09-23T16:33:31.131Z,13.65
2022-09-23T16:36:02.385Z,13.12
2022-09-23T16:38:32.084Z,12.73
2022-09-23T16:41:00.824Z,12.48
2022-09-23T16:43:32.786Z,12.18
2022-09-23T16:46:01.297Z,11.83
2022-09-23T16:48:29.381Z,11.48
2022-09-23T16:50:57.414Z,11.15
2022-09-23T16:53:29.825Z,10.82
2022-09-23T16:56:00.545Z,10.58
2022-09-23T16:58:28.653Z,10.44
2022-09-23T17:01:16.649Z,10.32
2022-09-23T17:03:44.601Z,10.02
2022-09-23T17:06:13.746Z,9.75
2022-09-23T17:08:42.973Z,9.43
2022-09-23T17:11:11.121Z,9.15
2022-09-23T17:13:42.551Z,8.96
2022-09-23T17:16:21.745Z,8.76
2022-09-23T17:18:49.843Z,8.58
2022-09-23T17:21:17.849Z,8.41
2022-09-23T17:23:45.798Z,8.28
2022-09-23T17:26:15.283Z,8.15
2022-09-23T17:28:43.257Z,8.05
2022-09-23T17:31:11.287Z,7.97
2022-09-23T17:33:39.589Z,7.85
2022-09-23T17:36:09.700Z,7.71
2022-09-23T17:38:41.250Z,7.59
2022-09-23T17:41:10.020Z,7.50
2022-09-23T17:43:39.047Z,7.43
2022-09-23T17:46:10.271Z,7.38
2022-09-23T17:48:41.552Z,7.31
2022-09-23T17:51:17.563Z,7.21
2022-09-23T17:53:47.741Z,7.13
2022-09-23T17:56:15.627Z,7.09
2022-09-23T17:58:46.191Z,7.06
2022-09-23T18:01:19.819Z,7.02
2022-09-23T18:03:48.901Z,6.94
2022-09-23T18:06:19.442Z,6.87
2022-09-23T18:08:49.639Z,6.81
2022-09-23T18:11:21.270Z,6.77
2022-09-23T18:13:52.771Z,6.72
2022-09-23T18:16:23.174Z,6.64
2022-09-23T18:18:56.066Z,6.59
2022-09-23T18:21:27.270Z,6.57
2022-09-23T18:23:59.818Z,6.53
2022-09-23T18:26:35.309Z,6.46
2022-09-23T18:29:04.199Z,6.40
2022-09-23T18:31:35.437Z,6.36
2022-09-23T18:34:07.002Z,6.34
2022-09-23T18:36:35.180Z,6.30
2022-09-23T18:39:03.925Z,6.26
2022-09-23T18:41:32.064Z,6.19
2022-09-23T18:44:00.251Z,6.13
2022-09-23T18:46:30.206Z,6.11
2022-09-23T18:49:18.164Z,6.11
2022-09-23T18:51:56.030Z,6.10
2022-09-23T18:54:28.209Z,6.04
2022-09-23T18:56:56.839Z,5.97
2022-09-23T18:59:29.965Z,5.92
2022-09-23T19:01:59.683Z,5.93
2022-09-23T19:04:29.342Z,5.90
2022-09-23T19:06:58.213Z,5.84
2022-09-23T19:09:26.684Z,5.77
2022-09-23T19:11:54.911Z,5.70
2022-09-23T19:14:23.808Z,5.66
2022-09-23T19:16:52.218Z,5.66
2022-09-23T19:19:20.383Z,5.65
2022-09-23T19:21:48.523Z,5.61
2022-09-23T19:24:20.364Z,5.55
2022-09-23T19:26:50.432Z,5.49
2022-09-23T19:29:23.323Z,5.47
2022-09-23T19:31:51.364Z,5.50
2022-09-23T19:34:24.054Z,5.54
2022-09-23T19:36:53.065Z,5.58
2022-09-23T19:39:23.674Z,5.56
2022-09-23T19:41:52.809Z,5.50
2022-09-23T19:44:21.039Z,5.46
2022-09-23T19:46:55.112Z,5.48
2022-09-23T19:49:26.833Z,5.45
2022-09-23T19:51:56.347Z,5.41
2022-09-23T19:54:27.774Z,5.43
2022-09-23T19:56:56.461Z,5.42
2022-09-23T19:59:26.687Z,5.39
2022-09-23T20:01:55.046Z,5.35
2022-09-23T20:04:23.414Z,5.30
2022-09-23T20:06:51.756Z,5.25
2022-09-23T20:09:19.793Z,5.20
2022-09-23T20:11:47.866Z,5.15
2022-09-23T20:14:15.786Z,5.12
2022-09-23T20:16:44.446Z,5.15
2022-09-23T20:19:13.090Z,5.21
2022-09-23T20:21:41.037Z,5.25
2022-09-23T20:24:09.752Z,5.26
2022-09-23T20:26:56.415Z,5.26
2022-09-23T20:29:24.401Z,5.25
2022-09-23T20:31:52.407Z,5.23
2022-09-23T20:34:21.311Z,5.16
2022-09-23T20:36:49.305Z,5.08
2022-09-23T20:39:17.844Z,5.04
2022-09-23T20:41:46.251Z,5.05
2022-09-23T20:44:14.615Z,5.07
2022-09-23T20:46:48.465Z,5.07
2022-09-23T20:49:18.077Z,5.01
2022-09-23T20:51:50.542Z,4.96
2022-09-23T20:54:19.347Z,4.92
2022-09-23T20:56:48.805Z,4.91
2022-09-23T20:59:18.427Z,4.92
2022-09-23T21:01:47.906Z,4.90
2022-09-23T21:04:16.287Z,4.89
2022-09-23T21:06:44.317Z,4.86
2022-09-23T21:09:12.487Z,4.85
2022-09-23T21:11:40.701Z,4.84
2022-09-23T21:14:08.771Z,4.83
2022-09-23T21:16:36.873Z,4.79
2022-09-23T21:19:08.120Z,4.76
2022-09-23T21:21:36.426Z,4.74
2022-09-23T21:24:31.342Z,4.73
2022-09-23T21:26:52.614Z,4.73
2022-09-23T21:29:20.634Z,4.69
2022-09-23T21:31:49.839Z,4.65
2022-09-23T21:34:19.442Z,4.61
2022-09-23T21:36:48.137Z,4.52
2022-09-23T21:39:16.309Z,4.48
2022-09-23T21:41:44.396Z,4.48
2022-09-23T21:44:12.300Z,4.49
2022-09-23T21:46:40.312Z,4.52
2022-09-23T21:49:09.294Z,4.53
2022-09-23T21:51:41.350Z,4.52
2022-09-23T21:54:16.015Z,4.51
2022-09-23T21:56:44.610Z,4.51
2022-09-23T21:59:13.051Z,4.49
2022-09-23T22:01:45.207Z,4.46
2022-09-23T22:04:19.186Z,4.43
2022-09-23T22:06:49.741Z,4.40
2022-09-23T22:09:20.023Z,4.40
2022-09-23T22:12:09.787Z,4.40
2022-09-23T22:14:39.186Z,4.40
2022-09-23T22:17:10.628Z,4.36
2022-09-23T22:19:45.857Z,4.31
2022-09-23T22:22:17.829Z,4.24
2022-09-23T22:24:47.794Z,4.22
2022-09-23T22:27:18.243Z,4.23
2022-09-23T22:30:04.745Z,4.21
2022-09-23T22:32:43.660Z,4.18
2022-09-23T22:35:16.826Z,4.15
2022-09-23T22:37:46.254Z,4.10
2022-09-23T22:40:15.738Z,4.15
2022-09-23T22:42:44.237Z,4.22
2022-09-23T22:45:13.349Z,4.26
2022-09-23T22:47:45.618Z,4.27
2022-09-23T22:50:14.865Z,4.26
2022-09-23T22:52:43.410Z,4.24
2022-09-23T22:55:12.315Z,4.23
2022-09-23T22:57:40.233Z,4.20
2022-09-23T23:00:09.568Z,4.20
2022-09-23T23:02:37.590Z,4.21
2022-09-23T23:05:06.043Z,4.21
2022-09-23T23:07:36.315Z,4.18
2022-09-23T23:10:04.799Z,4.17
2022-09-23T23:12:33.689Z,4.15
2022-09-23T23:15:01.678Z,4.17
2022-09-23T23:17:30.044Z,4.16
2022-09-23T23:19:58.104Z,4.16
2022-09-23T23:22:28.671Z,4.15
2022-09-23T23:24:56.928Z,4.12
2022-09-23T23:27:24.841Z,4.09
2022-09-23T23:29:52.929Z,4.07
2022-09-23T23:32:20.836Z,4.07
2022-09-23T23:34:48.812Z,4.05
2022-09-23T23:37:20.618Z,4.02
2022-09-23T23:39:48.948Z,4.02
2022-09-23T23:42:17.158Z,3.98
2022-09-23T23:44:45.284Z,3.96
2022-09-23T23:47:13.197Z,3.96
2022-09-23T23:49:41.212Z,3.97
2022-09-23T23:52:09.247Z,3.98
2022-09-23T23:54:38.065Z,3.93
2022-09-23T23:57:06.033Z,3.83
2022-09-23T23:59:34.534Z,3.79
